createdAt,value
2017-08-11T00:01:33.854Z,18.60
2017-08-11T00:04:03.118Z,18.50
2017-08-11T00:06:32.833Z,18.50
2017-08-11T00:09:01.927Z,18.40
2017-08-11T00:11:31.024Z,18.40
2017-08-11T00:13:59.911Z,18.40
2017-08-11T00:16:29.108Z,18.40
2017-08-11T00:18:59.596Z,18.30
2017-08-11T00:21:28.939Z,18.30
2017-08-11T00:23:58.032Z,18.30
2017-08-11T00:26:28.076Z,18.30
2017-08-11T00:28:58.024Z,18.30
2017-08-11T00:31:27.977Z,18.30
2017-08-11T00:33:57.027Z,18.20
2017-08-11T00:36:26.176Z,18.20
2017-08-11T00:38:55.570Z,18.20
2017-08-11T00:41:25.075Z,18.20
2017-08-11T00:43:54.301Z,18.20
2017-08-11T00:46:23.267Z,18.10
2017-08-11T00:48:52.467Z,18.10
2017-08-11T00:51:22.331Z,18.10
2017-08-11T00:53:51.423Z,18.10
2017-08-11T00:56:21.388Z,18.00
2017-08-11T00:58:51.258Z,18.00
2017-08-11T01:01:21.179Z,18.00
2017-08-11T01:03:50.276Z,18.00
2017-08-11T01:06:20.228Z,18.00
2017-08-11T01:08:49.936Z,17.90
2017-08-11T01:11:19.030Z,18.00
2017-08-11T01:13:47.923Z,17.90
2017-08-11T01:16:16.961Z,17.90
2017-08-11T01:18:46.057Z,17.90
2017-08-11T01:21:15.103Z,17.80
2017-08-11T01:23:44.976Z,17.80
2017-08-11T01:26:13.912Z,17.70
2017-08-11T01:28:42.903Z,17.70
2017-08-11T01:31:12.608Z,17.70
2017-08-11T01:33:41.294Z,17.70
2017-08-11T01:36:10.592Z,17.70
2017-08-11T01:38:39.627Z,17.70
2017-08-11T01:41:08.746Z,17.70
2017-08-11T01:43:37.877Z,17.70
2017-08-11T01:46:06.974Z,17.70
2017-08-11T01:48:35.863Z,17.70
2017-08-11T01:51:05.641Z,17.60
2017-08-11T01:53:34.672Z,17.60
2017-08-11T01:56:04.172Z,17.60
2017-08-11T01:58:33.063Z,17.60
2017-08-11T02:01:02.112Z,17.60
2017-08-11T02:03:31.453Z,17.60
2017-08-11T02:06:01.298Z,17.50
2017-08-11T02:08:30.416Z,17.50
2017-08-11T02:10:59.757Z,17.50
2017-08-11T02:13:28.670Z,17.50
2017-08-11T02:15:57.512Z,17.50
2017-08-11T02:18:26.647Z,17.50
2017-08-11T02:20:56.208Z,17.50
2017-08-11T02:23:25.379Z,17.40
2017-08-11T02:25:54.496Z,17.40
2017-08-11T02:28:23.430Z,17.40
2017-08-11T02:30:52.954Z,17.40
2017-08-11T02:33:22.241Z,17.30
2017-08-11T02:35:51.539Z,17.30
2017-08-11T02:38:21.015Z,17.30
2017-08-11T02:40:50.242Z,17.30
2017-08-11T02:43:19.863Z,17.30
2017-08-11T02:45:49.533Z,17.30
2017-08-11T02:48:18.550Z,17.30
2017-08-11T02:50:47.236Z,17.20
2017-08-11T02:53:16.497Z,17.20
2017-08-11T02:55:45.632Z,17.20
2017-08-11T02:58:15.747Z,17.10
2017-08-11T03:00:44.842Z,17.20
2017-08-11T03:03:13.936Z,17.20
2017-08-11T03:05:43.649Z,17.10
2017-08-11T03:08:12.536Z,17.10
2017-08-11T03:10:41.600Z,17.10
2017-08-11T03:13:10.691Z,17.10
2017-08-11T03:15:39.784Z,17.10
2017-08-11T03:18:08.880Z,17.10
2017-08-11T03:20:37.810Z,17.10
2017-08-11T03:23:07.006Z,17.00
2017-08-11T03:25:35.694Z,17.00
2017-08-11T03:28:05.401Z,17.00
2017-08-11T03:30:35.112Z,17.00
2017-08-11T03:33:04.961Z,17.00
2017-08-11T03:35:34.735Z,16.90
2017-08-11T03:40:41.530Z,16.90
2017-08-11T03:43:11.032Z,16.80
2017-08-11T03:45:50.776Z,16.80
2017-08-11T03:48:20.282Z,16.80
2017-08-11T03:50:49.134Z,16.80
2017-08-11T03:53:18.061Z,16.80
2017-08-11T03:55:47.157Z,16.80
2017-08-11T03:58:16.250Z,16.80
2017-08-11T04:00:45.512Z,16.80
2017-08-11T04:03:14.651Z,16.80
2017-08-11T04:05:43.740Z,16.80
2017-08-11T04:08:12.788Z,16.80
2017-08-11T04:10:41.882Z,16.70
2017-08-11T04:13:10.822Z,16.70
2017-08-11T04:15:39.856Z,16.70
2017-08-11T04:18:09.362Z,16.70
2017-08-11T04:20:38.479Z,16.70
2017-08-11T04:23:07.202Z,16.70
2017-08-11T04:25:36.098Z,16.70
2017-08-11T04:28:05.186Z,16.70
2017-08-11T04:30:34.234Z,16.70
2017-08-11T04:33:03.339Z,16.70
2017-08-11T04:35:32.063Z,16.60
2017-08-11T04:38:01.706Z,16.60
2017-08-11T04:40:31.080Z,16.60
2017-08-11T04:42:59.757Z,16.60
2017-08-11T04:45:29.099Z,16.60
2017-08-11T04:47:58.563Z,16.60
2017-08-11T04:50:27.661Z,16.60
2017-08-11T04:52:56.752Z,16.60
2017-08-11T04:55:26.408Z,16.60
2017-08-11T04:57:56.508Z,16.60
2017-08-11T05:00:25.683Z,16.60
2017-08-11T05:02:54.771Z,16.60
2017-08-11T05:05:23.458Z,16.60
2017-08-11T05:07:52.552Z,16.50
2017-08-11T05:10:21.648Z,16.50
2017-08-11T05:12:51.564Z,16.50
2017-08-11T05:15:21.683Z,16.50
2017-08-11T05:17:50.723Z,16.50
2017-08-11T05:20:19.789Z,16.50
2017-08-11T05:22:49.160Z,16.50
2017-08-11T05:25:18.879Z,16.50
2017-08-11T05:27:47.973Z,16.50
2017-08-11T05:30:17.117Z,16.50
2017-08-11T05:32:46.255Z,16.50
2017-08-11T05:35:16.284Z,16.50
2017-08-11T05:37:45.972Z,16.50
2017-08-11T05:40:16.731Z,16.50
2017-08-11T05:42:45.821Z,16.50
2017-08-11T05:45:14.872Z,16.50
2017-08-11T05:47:44.591Z,16.50
2017-08-11T05:50:14.541Z,16.50
2017-08-11T05:52:43.801Z,16.50
2017-08-11T05:55:12.923Z,16.50
2017-08-11T05:57:42.032Z,16.60
2017-08-11T06:00:11.119Z,16.30
2017-08-11T06:02:41.039Z,16.20
2017-08-11T06:05:10.269Z,16.30
2017-08-11T06:07:41.893Z,16.40
2017-08-11T06:10:11.191Z,16.50
2017-08-11T06:12:40.494Z,16.50
2017-08-11T06:15:09.179Z,16.50
2017-08-11T06:17:38.274Z,16.50
2017-08-11T06:20:07.404Z,16.60
2017-08-11T06:22:36.465Z,16.60
2017-08-11T06:25:06.167Z,16.60
2017-08-11T06:27:35.268Z,16.60
2017-08-11T06:30:05.389Z,16.60
2017-08-11T06:32:34.072Z,16.60
2017-08-11T06:35:02.757Z,16.60
2017-08-11T06:37:32.427Z,16.60
2017-08-11T06:40:03.102Z,16.70
2017-08-11T06:42:32.192Z,16.70
2017-08-11T06:45:00.882Z,16.70
2017-08-11T06:47:29.770Z,16.70
2017-08-11T06:49:58.454Z,16.70
2017-08-11T06:52:27.314Z,16.80
2017-08-11T06:54:56.253Z,16.70
2017-08-11T06:57:25.149Z,16.80
2017-08-11T06:59:54.315Z,16.80
2017-08-11T07:02:23.420Z,16.80
2017-08-11T07:04:52.493Z,16.80
2017-08-11T07:07:22.221Z,16.80
2017-08-11T07:09:52.344Z,16.80
2017-08-11T07:12:21.435Z,16.90
2017-08-11T07:14:50.942Z,16.90
2017-08-11T07:17:20.451Z,16.90
2017-08-11T07:19:49.133Z,16.90
2017-08-11T07:22:18.126Z,16.90
2017-08-11T07:24:46.808Z,16.90
2017-08-11T07:27:15.905Z,16.90
2017-08-11T07:29:45.063Z,16.90
2017-08-11T07:32:13.966Z,17.00
2017-08-11T07:34:42.676Z,17.00
2017-08-11T07:37:11.713Z,17.00
2017-08-11T07:39:40.807Z,17.00
2017-08-11T07:42:10.169Z,17.00
2017-08-11T07:44:39.262Z,17.00
2017-08-11T07:47:08.311Z,17.00
2017-08-11T07:49:38.204Z,17.10
2017-08-11T07:52:07.367Z,17.10
2017-08-11T07:54:37.486Z,17.10
2017-08-11T07:57:07.158Z,17.10
2017-08-11T07:59:36.289Z,17.20
2017-08-11T08:02:05.346Z,17.20
2017-08-11T08:04:34.693Z,17.20
2017-08-11T08:07:03.374Z,17.30
2017-08-11T08:09:32.472Z,17.30
2017-08-11T08:12:02.367Z,17.30
2017-08-11T08:14:31.476Z,17.30
2017-08-11T08:17:00.574Z,17.30
2017-08-11T08:19:29.471Z,17.30
2017-08-11T08:21:58.611Z,17.40
2017-08-11T08:24:29.264Z,17.40
2017-08-11T08:26:58.390Z,17.40
2017-08-11T08:29:29.063Z,17.40
2017-08-11T08:31:57.974Z,17.40
2017-08-11T08:34:26.696Z,17.40
2017-08-11T08:36:55.379Z,17.40
2017-08-11T08:39:24.678Z,17.40
2017-08-11T08:41:53.773Z,17.40
2017-08-11T08:44:22.769Z,17.40
2017-08-11T08:46:51.862Z,17.40
2017-08-11T08:49:20.960Z,17.50
2017-08-11T08:51:55.889Z,17.50
2017-08-11T08:54:25.495Z,17.50
2017-08-11T08:56:54.590Z,17.50
2017-08-11T08:59:23.763Z,17.60
2017-08-11T09:01:52.861Z,17.80
2017-08-11T09:04:22.392Z,17.90
2017-08-11T09:06:51.496Z,18.10
2017-08-11T09:09:20.579Z,18.20
2017-08-11T09:11:49.779Z,18.30
2017-08-11T09:14:18.769Z,18.30
2017-08-11T09:16:47.815Z,18.30
2017-08-11T09:19:16.970Z,18.30
2017-08-11T09:21:45.851Z,18.30
2017-08-11T09:24:36.693Z,18.20
2017-08-11T09:27:17.524Z,18.20
2017-08-11T09:29:58.292Z,18.20
2017-08-11T09:32:39.230Z,18.20
2017-08-11T09:35:20.035Z,18.20
2017-08-11T09:37:49.129Z,18.20
2017-08-11T09:40:18.234Z,18.20
2017-08-11T09:42:48.140Z,18.30
2017-08-11T09:45:17.237Z,18.20
2017-08-11T09:47:46.845Z,18.30
2017-08-11T09:50:16.558Z,18.40
2017-08-11T09:52:45.647Z,18.40
2017-08-11T09:55:14.686Z,18.40
2017-08-11T09:57:44.452Z,18.40
2017-08-11T10:00:13.917Z,18.50
2017-08-11T10:02:43.017Z,18.50
2017-08-11T10:05:12.114Z,18.40
2017-08-11T10:07:41.241Z,18.40
2017-08-11T10:10:11.156Z,18.40
2017-08-11T10:12:40.429Z,18.40
2017-08-11T10:15:09.549Z,18.40
2017-08-11T10:17:39.061Z,18.40
2017-08-11T10:20:08.969Z,18.40
2017-08-11T10:22:38.133Z,18.40
2017-08-11T10:25:07.252Z,18.40
2017-08-11T10:27:37.748Z,18.40
2017-08-11T10:30:07.667Z,18.40
2017-08-11T10:32:36.907Z,18.40
2017-08-11T10:35:06.825Z,18.50
2017-08-11T10:37:36.014Z,18.50
2017-08-11T10:40:05.914Z,18.50
2017-08-11T10:42:34.979Z,18.50
2017-08-11T10:45:03.814Z,18.50
2017-08-11T10:47:32.847Z,18.50
2017-08-11T10:50:02.823Z,18.50
2017-08-11T10:52:32.940Z,18.50
2017-08-11T10:55:03.060Z,18.50
2017-08-11T10:57:31.954Z,18.50
2017-08-11T11:00:00.637Z,18.50
2017-08-11T11:02:30.755Z,18.50
2017-08-11T11:05:00.466Z,18.50
2017-08-11T11:07:29.355Z,18.50
2017-08-11T11:09:58.243Z,18.50
2017-08-11T11:12:26.887Z,18.50
2017-08-11T11:14:56.026Z,18.50
2017-08-11T11:17:25.086Z,18.50
2017-08-11T11:19:54.626Z,18.50
2017-08-11T11:22:23.723Z,18.50
2017-08-11T11:24:53.017Z,18.50
2017-08-11T11:27:22.057Z,18.50
2017-08-11T11:29:51.214Z,18.50
2017-08-11T11:32:21.331Z,18.50
2017-08-11T11:34:50.734Z,18.50
2017-08-11T11:37:20.647Z,18.50
2017-08-11T11:39:49.844Z,18.50
2017-08-11T11:42:20.564Z,18.50
2017-08-11T11:44:50.785Z,18.50
2017-08-11T11:47:20.258Z,18.50
2017-08-11T11:49:49.348Z,18.50
2017-08-11T11:52:18.440Z,18.50
2017-08-11T11:54:48.409Z,18.50
2017-08-11T11:57:19.120Z,18.50
2017-08-11T11:59:48.238Z,18.40
2017-08-11T12:02:18.541Z,18.50
2017-08-11T12:04:49.280Z,18.50
2017-08-11T12:07:18.779Z,18.50
2017-08-11T12:09:48.495Z,18.50
2017-08-11T12:12:17.602Z,18.50
2017-08-11T12:14:47.515Z,18.50
2017-08-11T12:17:16.618Z,18.50
2017-08-11T12:19:46.325Z,18.50
2017-08-11T12:22:15.013Z,18.50
2017-08-11T12:24:43.794Z,18.50
2017-08-11T12:27:12.667Z,18.50
2017-08-11T12:29:41.926Z,18.50
2017-08-11T12:32:11.358Z,18.50
2017-08-11T12:34:41.305Z,18.50
2017-08-11T12:37:10.807Z,18.50
2017-08-11T12:39:40.421Z,18.50
2017-08-11T12:42:09.672Z,18.50
2017-08-11T12:44:39.218Z,18.60
2017-08-11T12:47:08.465Z,18.60
2017-08-11T12:49:37.562Z,18.60
2017-08-11T12:52:07.326Z,18.60
2017-08-11T12:54:37.032Z,18.60
2017-08-11T12:57:07.791Z,18.60
2017-08-11T12:59:36.659Z,18.60
2017-08-11T13:02:06.341Z,18.60
2017-08-11T13:04:35.743Z,18.60
2017-08-11T13:07:06.186Z,18.60
2017-08-11T13:09:36.021Z,18.60
2017-08-11T13:12:06.164Z,18.60
2017-08-11T13:14:36.975Z,18.60
2017-08-11T13:17:09.233Z,18.60
2017-08-11T13:19:41.203Z,18.60
2017-08-11T13:22:10.759Z,18.60
2017-08-11T13:24:40.617Z,18.60
2017-08-11T13:27:12.802Z,18.70
2017-08-11T13:29:42.947Z,18.70
2017-08-11T13:32:13.687Z,18.70
2017-08-11T13:34:43.560Z,18.70
2017-08-11T13:37:13.335Z,18.70
2017-08-11T13:39:42.362Z,18.70
2017-08-11T13:42:13.591Z,18.70
2017-08-11T13:44:53.869Z,18.70
2017-08-11T13:47:25.226Z,18.70
2017-08-11T13:49:54.643Z,18.70
2017-08-11T13:52:24.734Z,18.60
2017-08-11T13:54:54.541Z,18.70
2017-08-11T13:57:24.610Z,18.60
2017-08-11T13:59:55.089Z,18.70
2017-08-11T14:02:24.899Z,18.70
2017-08-11T14:04:54.715Z,18.70
2017-08-11T14:07:25.526Z,18.70
2017-08-11T14:09:55.215Z,18.60
2017-08-11T14:12:24.864Z,18.70
2017-08-11T14:14:55.566Z,18.60
2017-08-11T14:17:26.520Z,18.70
2017-08-11T14:19:56.813Z,18.70
2017-08-11T14:22:27.122Z,18.70
2017-08-11T14:24:58.044Z,18.70
2017-08-11T14:27:27.654Z,18.70
2017-08-11T14:29:57.716Z,18.70
2017-08-11T14:32:27.795Z,18.70
2017-08-11T14:34:58.394Z,18.70
2017-08-11T14:37:29.085Z,18.70
2017-08-11T14:39:58.608Z,18.70
2017-08-11T14:42:29.431Z,18.70
2017-08-11T14:44:58.913Z,18.70
2017-08-11T14:47:31.550Z,18.70
2017-08-11T14:50:01.103Z,18.70
2017-08-11T14:52:32.440Z,18.70
2017-08-11T14:55:02.896Z,18.70
2017-08-11T14:57:34.548Z,18.70
2017-08-11T15:00:05.025Z,18.70
2017-08-11T15:02:36.173Z,18.70
2017-08-11T15:05:06.433Z,18.70
2017-08-11T15:07:35.675Z,18.70
2017-08-11T15:10:05.269Z,18.70
2017-08-11T15:12:35.021Z,18.70
2017-08-11T15:15:05.825Z,18.70
2017-08-11T15:17:35.466Z,18.60
2017-08-11T15:20:06.449Z,18.60
2017-08-11T15:22:35.257Z,18.60
2017-08-11T15:25:05.380Z,18.60
2017-08-11T15:27:34.265Z,18.60
2017-08-11T15:30:04.097Z,18.60
2017-08-11T15:32:34.233Z,18.60
2017-08-11T15:35:04.465Z,18.60
2017-08-11T15:37:35.143Z,18.60
2017-08-11T15:40:05.069Z,18.60
2017-08-11T15:42:35.287Z,18.60
2017-08-11T15:45:05.304Z,18.60
2017-08-11T15:47:34.195Z,18.60
2017-08-11T15:50:03.281Z,18.70
2017-08-11T15:52:33.409Z,18.70
2017-08-11T15:55:03.807Z,18.70
2017-08-11T15:57:32.726Z,18.70
2017-08-11T16:00:02.038Z,18.70
2017-08-11T16:02:32.841Z,18.70
2017-08-11T16:07:43.419Z,18.70
2017-08-11T16:10:12.744Z,18.70
2017-08-11T16:12:42.058Z,18.70
2017-08-11T16:15:12.179Z,18.70
2017-08-11T16:17:41.675Z,18.70
2017-08-11T16:20:10.579Z,18.60
2017-08-11T16:22:42.522Z,18.60
2017-08-11T16:25:11.497Z,18.60
2017-08-11T16:27:40.708Z,18.60
2017-08-11T16:30:09.803Z,18.70
2017-08-11T16:32:39.008Z,18.60
2017-08-11T16:35:08.513Z,18.60
2017-08-11T16:37:39.987Z,18.60
2017-08-11T16:40:10.501Z,18.60
2017-08-11T16:42:39.695Z,18.60
2017-08-11T16:45:10.461Z,18.60
2017-08-11T16:47:39.462Z,18.50
2017-08-11T16:50:09.685Z,18.60
2017-08-11T16:52:39.975Z,18.60
2017-08-11T16:55:09.615Z,18.60
2017-08-11T16:57:40.781Z,18.60
2017-08-11T17:00:10.603Z,18.50
2017-08-11T17:02:43.849Z,18.60
2017-08-11T17:05:13.655Z,18.50
2017-08-11T17:07:42.822Z,18.60
2017-08-11T17:10:12.851Z,18.50
2017-08-11T17:12:42.299Z,18.50
2017-08-11T17:15:13.778Z,18.50
2017-08-11T17:17:43.707Z,18.50
2017-08-11T17:20:14.198Z,18.50
2017-08-11T17:22:45.002Z,18.50
2017-08-11T17:25:14.118Z,18.50
2017-08-11T17:27:43.767Z,18.50
2017-08-11T17:30:13.182Z,18.50
2017-08-11T17:32:42.069Z,18.50
2017-08-11T17:35:10.851Z,18.50
2017-08-11T17:37:39.746Z,18.50
2017-08-11T17:40:08.715Z,18.50
2017-08-11T17:42:37.862Z,18.50
2017-08-11T17:45:07.729Z,18.50
2017-08-11T17:47:37.021Z,18.50
2017-08-11T17:50:06.241Z,18.50
2017-08-11T17:52:39.624Z,18.50
2017-08-11T17:55:09.381Z,18.60
2017-08-11T17:57:38.934Z,18.60
2017-08-11T18:00:08.650Z,18.80
2017-08-11T18:02:39.190Z,19.00
2017-08-11T18:05:08.389Z,19.20
2017-08-11T18:07:38.749Z,19.30
2017-08-11T18:10:08.147Z,19.30
2017-08-11T18:12:39.144Z,19.40
2017-08-11T18:15:08.372Z,19.50
2017-08-11T18:17:37.960Z,19.50
2017-08-11T18:20:07.564Z,19.50
2017-08-11T18:22:36.701Z,19.60
2017-08-11T18:25:06.579Z,19.60
2017-08-11T18:27:36.083Z,19.60
2017-08-11T18:30:05.207Z,19.60
2017-08-11T18:32:34.325Z,19.60
2017-08-11T18:35:03.471Z,19.60
2017-08-11T18:37:32.569Z,19.70
2017-08-11T18:40:01.865Z,19.60
2017-08-11T18:42:30.962Z,19.60
2017-08-11T18:45:00.262Z,19.70
2017-08-11T18:47:29.562Z,19.60
2017-08-11T18:49:58.757Z,19.70
2017-08-11T18:52:28.672Z,19.70
2017-08-11T18:54:57.793Z,19.70
2017-08-11T18:57:27.033Z,19.70
2017-08-11T18:59:57.391Z,19.70
2017-08-11T19:02:27.469Z,19.70
2017-08-11T19:04:56.302Z,19.70
2017-08-11T19:07:25.404Z,19.70
2017-08-11T19:09:55.247Z,19.70
2017-08-11T19:12:24.365Z,19.70
2017-08-11T19:14:53.497Z,19.70
2017-08-11T19:17:22.773Z,19.70
2017-08-11T19:19:52.460Z,19.70
2017-08-11T19:22:22.968Z,19.70
2017-08-11T19:24:52.612Z,19.70
2017-08-11T19:27:21.452Z,19.70
2017-08-11T19:29:51.448Z,19.60
2017-08-11T19:32:21.172Z,19.70
2017-08-11T19:34:50.055Z,19.60
2017-08-11T19:37:19.144Z,19.70
2017-08-11T19:39:48.242Z,19.70
2017-08-11T19:42:18.135Z,19.70
2017-08-11T19:44:47.353Z,19.60
2017-08-11T19:47:16.242Z,19.60
2017-08-11T19:49:46.256Z,19.60
2017-08-11T19:52:16.381Z,19.60
2017-08-11T19:54:46.251Z,19.60
2017-08-11T19:57:16.210Z,19.60
2017-08-11T19:59:46.121Z,19.50
2017-08-11T20:02:15.181Z,19.50
2017-08-11T20:04:44.929Z,19.60
2017-08-11T20:07:14.024Z,19.60
2017-08-11T20:09:43.088Z,19.60
2017-08-11T20:12:12.279Z,19.60
2017-08-11T20:14:41.369Z,19.50
2017-08-11T20:17:11.115Z,19.50
2017-08-11T20:19:40.589Z,19.50
2017-08-11T20:22:09.511Z,19.50
2017-08-11T20:24:38.670Z,19.50
2017-08-11T20:27:07.762Z,19.50
2017-08-11T20:29:36.997Z,19.50
2017-08-11T20:32:07.019Z,19.50
2017-08-11T20:34:37.029Z,19.50
2017-08-11T20:37:06.127Z,19.40
2017-08-11T20:39:35.230Z,19.40
2017-08-11T20:42:05.965Z,19.40
2017-08-11T20:44:35.664Z,19.40
2017-08-11T20:47:05.173Z,19.40
2017-08-11T20:49:34.472Z,19.40
2017-08-11T20:52:04.543Z,19.40
2017-08-11T20:54:36.526Z,19.40
2017-08-11T20:57:05.782Z,19.40
2017-08-11T20:59:35.159Z,19.40
2017-08-11T21:02:05.017Z,19.30
2017-08-11T21:04:34.165Z,19.30
2017-08-11T21:07:04.031Z,19.30
2017-08-11T21:09:34.266Z,19.30
2017-08-11T21:12:04.935Z,19.30
2017-08-11T21:14:34.810Z,19.30
2017-08-11T21:17:03.927Z,19.20
2017-08-11T21:19:32.996Z,19.20
2017-08-11T21:22:02.073Z,19.20
2017-08-11T21:24:31.059Z,19.20
2017-08-11T21:27:01.854Z,19.20
2017-08-11T21:29:31.720Z,19.20
2017-08-11T21:32:00.987Z,19.20
2017-08-11T21:34:31.130Z,19.10
2017-08-11T21:37:00.079Z,19.10
2017-08-11T21:39:29.173Z,19.10
2017-08-11T21:41:59.033Z,19.10
2017-08-11T21:44:28.182Z,19.10
2017-08-11T21:46:57.280Z,19.10
2017-08-11T21:49:27.404Z,19.10
2017-08-11T21:51:56.494Z,19.00
2017-08-11T21:54:26.327Z,19.10
2017-08-11T21:56:55.706Z,19.00
2017-08-11T21:59:24.903Z,19.00
2017-08-11T22:01:54.073Z,19.00
2017-08-11T22:04:23.198Z,19.00
2017-08-11T22:06:53.117Z,19.00
2017-08-11T22:09:22.358Z,19.00
2017-08-11T22:11:52.123Z,19.00
2017-08-11T22:14:21.318Z,19.00
2017-08-11T22:16:52.255Z,18.90
2017-08-11T22:19:22.377Z,18.90
2017-08-11T22:21:52.498Z,18.90
2017-08-11T22:24:21.691Z,18.90
2017-08-11T22:26:50.486Z,18.90
2017-08-11T22:29:19.269Z,18.90
2017-08-11T22:31:50.408Z,18.90
2017-08-11T22:34:19.543Z,18.90
2017-08-11T22:36:48.495Z,18.90
2017-08-11T22:39:18.311Z,18.90
2017-08-11T22:41:48.021Z,18.90
2017-08-11T22:44:17.117Z,18.80
2017-08-11T22:46:47.742Z,18.80
2017-08-11T22:49:16.842Z,18.80
2017-08-11T22:51:45.860Z,18.80
2017-08-11T22:54:15.263Z,18.80
2017-08-11T22:56:44.708Z,18.80
2017-08-11T22:59:14.824Z,18.70
2017-08-11T23:01:43.919Z,18.70
2017-08-11T23:04:13.112Z,18.70
2017-08-11T23:06:42.081Z,18.70
2017-08-11T23:09:12.294Z,18.70
2017-08-11T23:11:41.462Z,18.70
2017-08-11T23:14:10.761Z,18.70
2017-08-11T23:16:40.775Z,18.70
2017-08-11T23:19:09.945Z,18.70
2017-08-11T23:21:43.362Z,18.70
2017-08-11T23:24:22.774Z,18.70
2017-08-11T23:27:01.489Z,18.70
2017-08-11T23:29:31.349Z,18.60
2017-08-11T23:32:01.435Z,18.60
2017-08-11T23:34:30.560Z,18.60
2017-08-11T23:36:59.658Z,18.60
2017-08-11T23:39:29.662Z,18.60
2017-08-11T23:41:58.812Z,18.60
2017-08-11T23:44:27.933Z,18.60
2017-08-11T23:46:57.846Z,18.50
2017-08-11T23:49:27.055Z,18.60
2017-08-11T23:51:55.937Z,18.50
2017-08-11T23:54:24.966Z,18.50
2017-08-11T23:56:54.255Z,18.50
2017-08-11T23:59:22.940Z,18.50
